Time;durP1;ratioP1;P1;durP2;ratioP2;P2;SDS_P1;SDS_P2;PMS_P1;PMS_P2;Temp;Humidity;BMP_temperature;BMP_pressure;BME280_temperature;BME280_humidity;BME280_pressure;Samples;Min_cycle;Max_cycle;Signal;HPM_P1;HPM_P2
2022/08/04 00:01:39;;;;;;;2.88;1.80;;;;;;;23.21;53.53;99695.91;5149807;27;20085;-79
2022/08/04 00:04:13;;;;;;;3.90;2.72;;;;;;;23.15;53.26;99696.31;5150022;27;20056;-78
2022/08/04 00:06:58;;;;;;;2.67;1.77;;;;;;;22.91;53.96;99712.25;5149901;27;20058;-78
2022/08/04 00:09:48;;;;;;;4.55;2.50;;;;;;;22.94;53.98;99690.53;5149946;27;20111;-78
2022/08/04 00:12:15;;;;;;;2.10;1.60;;;;;;;23.02;53.36;99696.25;5149928;27;20582;-80
2022/08/04 00:14:48;;;;;;;3.22;2.08;;;;;;;22.84;53.26;99674.13;5150207;27;20239;-78
2022/08/04 00:17:13;;;;;;;3.63;1.63;;;;;;;22.67;53.58;99690.53;5149421;27;20027;-78
2022/08/04 00:19:48;;;;;;;4.78;2.30;;;;;;;22.96;53.01;99699.34;5149480;27;20053;-82
2022/08/04 00:22:18;;;;;;;2.80;1.88;;;;;;;23.03;53.23;99697.13;5149535;27;20034;-79
2022/08/04 00:24:45;;;;;;;3.42;2.28;;;;;;;23.04;53.65;99701.53;5149956;27;20150;-78
2022/08/04 00:27:11;;;;;;;3.15;1.95;;;;;;;23.05;52.46;99701.44;5149253;27;20516;-78
2022/08/04 00:29:38;;;;;;;2.40;1.40;;;;;;;23.07;52.71;99687.88;5149648;27;20025;-78
2022/08/04 00:32:06;;;;;;;3.00;1.80;;;;;;;23.02;52.85;99695.41;5149364;27;20044;-78
2022/08/04 00:34:33;;;;;;;2.45;1.65;;;;;;;22.99;53.45;99709.06;5148734;27;20271;-78
2022/08/04 00:36:59;;;;;;;2.40;1.50;;;;;;;23.02;52.24;99681.97;5149747;27;20031;-78
2022/08/04 00:39:25;;;;;;;2.75;1.67;;;;;;;23.02;51.81;99698.94;5148754;27;20402;-78
2022/08/04 00:42:10;;;;;;;2.45;1.85;;;;;;;22.97;53.12;99716.34;5149034;27;20090;-78
2022/08/04 00:44:53;;;;;;;2.40;1.73;;;;;;;22.95;52.44;99713.75;5130164;27;20045;-78
2022/08/04 00:47:34;;;;;;;2.55;2.03;;;;;;;22.81;51.84;99676.16;5148021;27;20411;-80
2022/08/04 00:50:04;;;;;;;1.67;1.30;;;;;;;23.07;51.36;99704.88;5149279;27;20030;-80
2022/08/04 00:52:38;;;;;;;2.85;1.75;;;;;;;23.03;52.04;99716.81;5149356;27;20129;-80
2022/08/04 00:55:31;;;;;;;2.47;1.88;;;;;;;22.94;51.99;99725.50;5149067;27;20023;-78
2022/08/04 00:58:21;;;;;;;1.33;1.17;;;;;;;22.83;52.23;99722.63;5149154;27;20031;-79
2022/08/04 01:00:58;;;;;;;3.00;1.55;;;;;;;22.74;52.64;99715.16;5149126;27;20070;-78
2022/08/04 01:03:50;;;;;;;3.50;1.95;;;;;;;22.58;53.26;99710.78;5148658;27;20118;-78
2022/08/04 01:06:38;;;;;;;2.38;1.90;;;;;;;22.57;53.50;99716.25;5148642;27;20385;-80
2022/08/04 01:09:42;;;;;;;2.17;1.40;;;;;;;22.57;53.22;99716.25;5148758;27;20034;-78
2022/08/04 01:12:40;;;;;;;3.97;2.17;;;;;;;22.62;52.84;99712.31;5148411;27;20039;-78
2022/08/04 01:15:15;;;;;;;3.35;1.83;;;;;;;22.44;53.02;99690.19;5141497;27;20046;-79
2022/08/04 01:18:05;;;;;;;2.40;1.50;;;;;;;22.75;52.64;99714.22;5148482;27;20567;-78
2022/08/04 01:20:39;;;;;;;3.00;1.75;;;;;;;22.62;52.97;99706.09;5136250;27;20074;-79
2022/08/04 01:23:19;;;;;;;3.30;1.63;;;;;;;22.64;53.13;99729.22;5129723;27;20121;-78
2022/08/04 01:26:22;;;;;;;3.33;1.88;;;;;;;22.64;53.53;99722.97;5148726;27;20054;-78
2022/08/04 01:29:10;;;;;;;2.67;2.00;;;;;;;22.63;53.84;99729.31;5148338;27;20048;-78
2022/08/04 01:31:58;;;;;;;3.55;1.90;;;;;;;22.66;53.24;99719.25;5148698;27;20038;-78
2022/08/04 01:34:29;;;;;;;4.18;2.00;;;;;;;22.63;53.62;99723.94;5148457;27;20046;-78
2022/08/04 01:37:11;;;;;;;2.40;1.95;;;;;;;22.56;53.84;99720.78;5148573;27;20026;-78
2022/08/04 01:39:49;;;;;;;2.88;1.83;;;;;;;22.45;53.58;99716.09;5148277;27;20026;-80
2022/08/04 01:42:19;;;;;;;3.25;2.30;;;;;;;22.48;53.53;99733.88;5148946;27;20031;-81
2022/08/04 01:44:47;;;;;;;4.47;2.00;;;;;;;22.35;53.93;99726.59;5148283;27;20019;-82
2022/08/04 01:47:15;;;;;;;3.08;1.88;;;;;;;22.09;54.21;99721.94;5148216;27;20518;-81
2022/08/04 01:49:45;;;;;;;3.85;2.22;;;;;;;21.87;54.76;99715.22;5148026;27;20453;-78
2022/08/04 01:52:15;;;;;;;3.95;1.98;;;;;;;21.55;55.84;99704.63;5148427;27;20034;-78
2022/08/04 01:54:41;;;;;;;3.17;1.70;;;;;;;21.75;55.65;99729.38;5148250;27;20030;-82
2022/08/04 01:57:11;;;;;;;3.92;1.92;;;;;;;21.82;55.64;99728.91;5129132;27;20440;-79
2022/08/04 01:59:38;;;;;;;4.78;2.10;;;;;;;21.80;55.79;99722.78;5151991;27;20495;-78
2022/08/04 02:02:06;;;;;;;3.72;1.88;;;;;;;21.61;56.67;99708.75;5152181;27;20084;-82
2022/08/04 02:04:34;;;;;;;2.45;2.00;;;;;;;21.69;56.13;99705.59;5152544;27;20027;-78
2022/08/04 02:07:25;;;;;;;3.20;1.50;;;;;;;21.73;56.56;99724.09;5152373;27;20035;-79
2022/08/04 02:10:05;;;;;;;3.65;2.47;;;;;;;21.66;56.88;99709.34;5103786;27;20049;-78
2022/08/04 02:12:45;;;;;;;7.63;2.72;;;;;;;21.56;57.63;99724.28;5152018;27;20031;-79
2022/08/04 02:15:25;;;;;;;2.67;1.85;;;;;;;21.73;57.09;99723.25;5152123;27;20697;-79
2022/08/04 02:17:56;;;;;;;3.30;2.10;;;;;;;21.56;57.20;99698.28;5151947;27;20175;-78
2022/08/04 02:20:24;;;;;;;4.07;2.60;;;;;;;21.52;57.23;99698.56;5151941;27;20503;-78
2022/08/04 02:23:00;;;;;;;3.60;2.35;;;;;;;21.48;57.95;99723.84;5133182;27;20110;-78
2022/08/04 02:25:27;;;;;;;4.95;2.65;;;;;;;21.42;57.94;99711.66;5152063;27;20042;-81
2022/08/04 02:28:17;;;;;;;4.50;2.38;;;;;;;21.59;57.52;99733.00;5152032;27;20031;-78
2022/08/04 02:30:56;;;;;;;5.20;2.33;;;;;;;21.20;58.26;99709.38;5151625;27;20522;-78
2022/08/04 02:33:32;;;;;;;5.28;2.88;;;;;;;21.05;58.67;99712.03;5151301;27;20078;-81
2022/08/04 02:36:02;;;;;;;3.17;2.25;;;;;;;21.05;58.94;99717.38;5152084;27;20430;-78
2022/08/04 02:38:48;;;;;;;4.30;2.50;;;;;;;21.12;59.26;99742.03;5151583;27;20555;-78
2022/08/04 02:41:19;;;;;;;4.07;2.55;;;;;;;21.11;59.24;99727.72;5151103;27;20389;-78
2022/08/04 02:43:47;;;;;;;3.20;2.25;;;;;;;20.91;59.85;99725.34;5151306;27;20113;-78
2022/08/04 02:46:15;;;;;;;3.47;2.47;;;;;;;21.04;59.74;99738.94;5151692;27;20035;-80
2022/08/04 02:48:42;;;;;;;3.55;2.65;;;;;;;21.04;59.96;99725.53;5151378;27;20095;-78
2022/08/04 02:51:12;;;;;;;4.47;2.85;;;;;;;20.89;60.39;99717.38;5151728;27;20042;-78
2022/08/04 02:53:40;;;;;;;6.78;3.03;;;;;;;21.10;59.49;99712.59;5151487;27;20031;-78
2022/08/04 02:56:08;;;;;;;12.02;3.20;;;;;;;21.29;59.59;99735.66;5151268;27;20117;-78
2022/08/04 02:58:35;;;;;;;4.57;3.03;;;;;;;21.19;59.51;99743.38;5151434;27;20033;-78
2022/08/04 03:01:01;;;;;;;5.38;4.10;;;;;;;21.09;59.96;99723.44;5145116;27;20557;-78
2022/08/04 03:03:39;;;;;;;4.47;3.10;;;;;;;21.06;59.89;99727.13;5130756;27;20059;-80
2022/08/04 03:06:11;;;;;;;4.45;3.28;;;;;;;20.96;60.84;99747.41;5111464;27;20420;-79
2022/08/04 03:09:22;;;;;;;5.22;3.10;;;;;;;20.99;60.76;99741.88;5129558;27;20035;-79
2022/08/04 03:11:50;;;;;;;4.97;3.25;;;;;;;21.12;60.86;99752.75;5103827;27;20111;-78
2022/08/04 03:14:40;;;;;;;2.88;2.08;;;;;;;21.21;60.61;99760.25;5129713;27;20457;-79
2022/08/04 03:17:27;;;;;;;4.28;3.22;;;;;;;21.33;60.13;99755.13;5129953;27;20027;-78
2022/08/04 03:20:14;;;;;;;4.60;2.85;;;;;;;21.43;60.10;99750.94;5130274;27;20043;-78
2022/08/04 03:22:49;;;;;;;5.28;3.15;;;;;;;21.40;60.21;99757.34;5111074;27;20405;-79
2022/08/04 03:25:36;;;;;;;5.13;3.17;;;;;;;21.34;60.33;99748.81;5130371;27;20039;-80
2022/08/04 03:28:36;;;;;;;3.47;2.47;;;;;;;21.49;60.21;99761.34;5130097;27;20419;-80
2022/08/04 03:31:26;;;;;;;4.00;2.63;;;;;;;21.62;59.98;99758.78;5129858;27;20035;-83
2022/08/04 03:34:18;;;;;;;4.28;2.92;;;;;;;21.69;59.74;99760.16;5129637;27;20118;-79
2022/08/04 03:36:56;;;;;;;4.50;3.17;;;;;;;21.64;59.61;99740.78;5081772;27;20042;-80
2022/08/04 03:40:09;;;;;;;3.42;2.45;;;;;;;21.65;59.90;99753.25;5129614;27;20045;-79
2022/08/04 03:42:56;;;;;;;2.37;2.17;;;;;;;21.71;60.14;99741.28;5129769;27;20034;-78
2022/08/04 03:45:39;;;;;;;4.38;2.67;;;;;;;21.93;59.85;99759.63;5129527;27;20331;-79
2022/08/04 03:48:12;;;;;;;3.83;2.78;;;;;;;21.82;60.12;99746.84;5129722;27;20087;-79
2022/08/04 03:53:47;;;;;;;7.53;4.15;;;;;;;22.03;59.65;99744.69;5129294;27;20085;-78
2022/08/04 03:56:28;;;;;;;3.77;3.00;;;;;;;22.27;59.42;99763.75;5129740;27;20041;-78
2022/08/04 03:59:08;;;;;;;4.40;3.13;;;;;;;22.30;59.27;99755.53;5128970;27;20035;-78
2022/08/04 04:01:39;;;;;;;10.00;3.83;;;;;;;22.26;59.50;99758.50;5129379;27;20035;-78
2022/08/04 04:04:32;;;;;;;4.63;3.25;;;;;;;22.33;59.58;99758.03;5129242;27;20031;-78
2022/08/04 04:07:28;;;;;;;6.43;3.90;;;;;;;22.60;59.08;99762.66;5129121;27;20145;-78
2022/08/04 04:10:28;;;;;;;5.32;2.90;;;;;;;22.73;58.86;99762.72;5128743;27;20489;-79
2022/08/04 04:13:13;;;;;;;5.25;3.50;;;;;;;22.97;58.83;99751.31;5129085;27;20114;-79
2022/08/04 04:16:00;;;;;;;4.32;3.40;;;;;;;23.12;58.05;99744.09;5129083;27;20034;-78
2022/08/04 04:18:50;;;;;;;5.20;3.22;;;;;;;23.45;57.48;99750.88;5128938;27;20027;-79
2022/08/04 04:21:27;;;;;;;6.40;3.50;;;;;;;23.44;56.64;99747.31;5129105;27;20038;-80
2022/08/04 04:24:06;;;;;;;6.47;3.20;;;;;;;23.48;56.41;99753.34;5128310;27;20121;-79
2022/08/04 04:26:50;;;;;;;7.55;4.45;;;;;;;23.52;55.63;99760.25;5129288;27;20027;-78
2022/08/04 04:29:37;;;;;;;4.68;3.28;;;;;;;23.33;55.38;99761.50;5128672;27;20064;-78
2022/08/04 04:32:13;;;;;;;7.35;3.22;;;;;;;23.32;56.00;99770.53;5128818;27;20053;-81
2022/08/04 04:34:56;;;;;;;4.68;3.22;;;;;;;23.22;55.67;99747.91;5128433;27;20158;-78
2022/08/04 04:37:46;;;;;;;7.63;3.45;;;;;;;23.28;56.07;99774.41;5128812;27;20034;-78
2022/08/04 04:40:42;;;;;;;4.30;3.15;;;;;;;23.24;56.58;99780.94;5128200;27;20511;-78
2022/08/04 04:43:10;;;;;;;4.95;3.65;;;;;;;23.39;56.27;99784.47;5128238;27;20038;-78
2022/08/04 04:46:12;;;;;;;5.18;3.38;;;;;;;23.41;55.69;99772.59;5128726;27;20035;-78
2022/08/04 04:48:53;;;;;;;5.30;3.97;;;;;;;23.51;54.88;99771.97;5128333;27;20415;-78
2022/08/04 04:51:30;;;;;;;4.85;2.53;;;;;;;23.44;56.55;99766.16;5128548;27;20117;-83
2022/08/04 04:54:21;;;;;;;4.75;3.22;;;;;;;23.62;55.90;99755.97;5128561;27;20034;-78
2022/08/04 04:56:56;;;;;;;3.85;3.20;;;;;;;23.75;56.16;99750.63;5128206;27;20497;-78
2022/08/04 04:59:27;;;;;;;4.25;3.22;;;;;;;23.99;55.72;99771.44;5127966;27;20050;-78
2022/08/04 05:02:17;;;;;;;5.07;3.70;;;;;;;24.21;54.95;99774.38;5128339;27;20027;-81
2022/08/04 05:05:03;;;;;;;5.78;3.13;;;;;;;24.47;53.90;99780.59;5127778;27;20127;-79
2022/08/04 05:07:40;;;;;;;5.72;3.28;;;;;;;24.55;53.22;99765.72;5110373;27;20058;-79
2022/08/04 05:10:18;;;;;;;5.03;3.42;;;;;;;24.51;54.55;99773.16;5127894;27;20042;-78
2022/08/04 05:13:31;;;;;;;4.57;3.13;;;;;;;24.65;54.77;99775.75;5128374;27;20489;-78
2022/08/04 05:16:04;;;;;;;4.50;2.40;;;;;;;24.89;53.66;99772.25;5007745;28;20033;-79
2022/08/04 05:18:35;;;;;;;3.83;2.85;;;;;;;24.97;52.59;99777.91;5120120;27;20034;-78
2022/08/04 05:21:24;;;;;;;6.82;3.97;;;;;;;24.81;54.12;99767.41;5128057;27;20035;-79
2022/08/04 05:23:59;;;;;;;3.97;2.80;;;;;;;25.30;53.68;99771.03;5127826;27;20039;-79
2022/08/04 05:26:31;;;;;;;5.72;3.20;;;;;;;25.75;51.38;99778.44;5127766;27;20087;-78
2022/08/04 05:29:01;;;;;;;4.35;3.08;;;;;;;25.57;51.21;99780.72;5128312;27;20044;-79
2022/08/04 05:31:36;;;;;;;6.78;3.90;;;;;;;25.72;50.71;99773.28;5127772;28;20030;-78
2022/08/04 05:34:11;;;;;;;8.43;3.33;;;;;;;26.35;50.36;99779.16;5127335;27;20047;-79
2022/08/04 05:36:40;;;;;;;5.15;3.08;;;;;;;26.53;48.71;99767.88;5127725;28;20110;-79
2022/08/04 05:39:20;;;;;;;5.05;3.40;;;;;;;26.64;48.02;99765.16;5127585;28;20064;-78
2022/08/04 05:41:48;;;;;;;6.97;2.75;;;;;;;26.30;49.12;99765.16;5127367;28;20034;-78
2022/08/04 05:44:18;;;;;;;4.85;2.83;;;;;;;26.47;46.48;99792.72;5109724;28;20031;-78
2022/08/04 05:46:48;;;;;;;4.82;2.35;;;;;;;26.32;48.57;99768.63;5127863;28;20157;-78
2022/08/04 05:49:15;;;;;;;4.85;2.65;;;;;;;26.57;48.56;99774.75;5127492;28;20031;-79
2022/08/04 05:51:42;;;;;;;3.80;2.40;;;;;;;26.53;47.22;99763.31;5128029;28;20043;-80
2022/08/04 05:54:09;;;;;;;4.13;2.40;;;;;;;26.95;46.18;99768.09;5127517;28;20023;-78
2022/08/04 05:56:36;;;;;;;3.17;2.33;;;;;;;26.91;46.27;99772.91;5127966;28;20023;-79
2022/08/04 05:59:03;;;;;;;3.03;2.00;;;;;;;26.99;46.32;99772.28;5127653;28;20023;-79
2022/08/04 06:01:30;;;;;;;4.03;2.35;;;;;;;27.10;43.97;99774.09;5127225;28;20027;-82
2022/08/04 06:04:01;;;;;;;3.75;2.15;;;;;;;26.88;45.95;99777.69;5127376;28;20031;-79
2022/08/04 06:06:29;;;;;;;3.08;2.40;;;;;;;27.06;45.64;99784.31;5127562;28;20027;-79
2022/08/04 06:08:55;;;;;;;5.13;2.42;;;;;;;27.10;45.59;99782.22;5127395;28;20050;-80
2022/08/04 06:11:22;;;;;;;9.80;2.33;;;;;;;27.26;45.04;99770.97;5127786;28;20077;-79
2022/08/04 06:13:56;;;;;;;4.97;2.60;;;;;;;27.30;44.54;99767.88;5127370;28;20027;-79
2022/08/04 06:16:24;;;;;;;3.07;1.97;;;;;;;27.78;44.77;99774.69;5127388;28;20058;-78
2022/08/04 06:18:52;;;;;;;3.35;2.47;;;;;;;27.77;43.76;99769.41;5127322;28;20083;-79
2022/08/04 06:21:22;;;;;;;5.07;2.88;;;;;;;27.62;44.66;99760.75;5127451;28;20027;-78
2022/08/04 06:23:50;;;;;;;7.22;3.25;;;;;;;28.28;42.26;99775.88;5127384;28;20031;-78
2022/08/04 06:26:20;;;;;;;3.13;1.88;;;;;;;28.23;42.41;99765.44;5127168;28;20132;-79
2022/08/04 06:28:49;;;;;;;2.60;1.95;;;;;;;28.06;42.32;99766.06;5127334;28;20034;-79
2022/08/04 06:32:12;;;;;;;2.80;1.83;;;;;;;27.98;44.02;99770.31;5127517;28;20039;-79
2022/08/04 06:34:04;;;;;;;4.45;2.25;;;;;;;28.64;42.32;99773.63;5108772;27;20053;-79
2022/08/04 06:36:31;;;;;;;4.63;2.28;;;;;;;28.91;41.10;99762.16;5127388;28;20042;-79
2022/08/04 06:38:59;;;;;;;3.90;2.20;;;;;;;29.22;41.22;99762.09;5126752;28;20019;-79
2022/08/04 06:41:27;;;;;;;13.00;2.42;;;;;;;29.09;40.48;99768.63;5127367;28;20065;-80
2022/08/04 06:43:57;;;;;;;3.75;1.98;;;;;;;28.92;42.28;99772.88;5127241;27;20131;-79
2022/08/04 06:46:23;;;;;;;2.97;2.05;;;;;;;29.52;39.71;99771.09;5130568;27;20031;-80
2022/08/04 06:48:49;;;;;;;2.72;2.08;;;;;;;28.88;40.08;99776.00;5131113;27;20416;-81
2022/08/04 06:51:17;;;;;;;6.70;3.20;;;;;;;28.82;39.88;99774.69;5130888;27;20023;-79
2022/08/04 06:53:42;;;;;;;5.22;2.20;;;;;;;29.11;40.22;99763.91;5111938;27;20436;-79
2022/08/04 06:56:09;;;;;;;4.32;2.42;;;;;;;29.53;39.56;99775.56;5130350;27;20039;-80
2022/08/04 06:58:37;;;;;;;2.95;1.88;;;;;;;29.66;38.74;99762.53;5130855;27;20026;-80
2022/08/04 07:01:03;;;;;;;3.28;2.42;;;;;;;29.55;39.42;99757.22;5130366;27;20099;-79
2022/08/04 07:03:30;;;;;;;3.15;2.38;;;;;;;29.53;38.69;99756.53;5111412;27;20466;-79
2022/08/04 07:05:56;;;;;;;2.63;1.75;;;;;;;29.90;38.60;99747.66;5130772;27;20035;-80
2022/08/04 07:08:22;;;;;;;8.32;2.65;;;;;;;29.87;38.82;99745.22;5130316;27;20027;-78
2022/08/04 07:10:48;;;;;;;4.32;2.50;;;;;;;29.78;38.41;99760.50;5130247;27;20034;-81
2022/08/04 07:13:14;;;;;;;3.67;1.90;;;;;;;29.28;40.25;99756.09;5130515;27;20168;-79
2022/08/04 07:15:45;;;;;;;2.95;2.38;;;;;;;29.36;39.96;99744.53;5130261;27;20039;-79
2022/08/04 07:18:11;;;;;;;3.15;2.15;;;;;;;30.59;38.38;99745.59;5130149;27;20038;-82
2022/08/04 07:20:43;;;;;;;2.90;1.95;;;;;;;30.75;36.95;99763.97;5130171;27;20027;-79
2022/08/04 07:23:11;;;;;;;3.22;2.10;;;;;;;30.56;37.81;99752.16;5129760;27;20754;-82
2022/08/04 07:25:38;;;;;;;3.63;2.92;;;;;;;30.46;37.22;99764.97;5130287;27;20061;-79
2022/08/04 07:28:03;;;;;;;15.98;3.45;;;;;;;30.79;37.58;99751.78;5129801;27;20064;-79
2022/08/04 07:30:30;;;;;;;4.03;2.05;;;;;;;31.11;37.34;99737.69;5130114;27;20054;-79
2022/08/04 07:32:56;;;;;;;2.08;1.83;;;;;;;31.18;35.68;99767.88;5129897;27;20055;-79
2022/08/04 07:35:22;;;;;;;3.95;1.75;;;;;;;30.80;37.12;99753.47;5129563;27;20075;-81
2022/08/04 07:37:48;;;;;;;2.58;1.92;;;;;;;30.61;36.05;99744.41;5129878;27;20039;-79
2022/08/04 07:40:14;;;;;;;3.00;2.00;;;;;;;31.14;36.03;99752.84;5129618;27;20078;-80
2022/08/04 07:42:40;;;;;;;1.77;1.58;;;;;;;31.23;36.33;99747.34;5129638;27;20424;-80
2022/08/04 07:45:07;;;;;;;3.50;2.10;;;;;;;30.81;37.66;99755.19;5129541;27;20156;-78
2022/08/04 07:47:33;;;;;;;6.10;3.13;;;;;;;31.05;37.21;99752.78;5128420;27;20038;-79
2022/08/04 07:49:58;;;;;;;4.75;3.13;;;;;;;31.50;36.79;99763.78;5129200;27;20031;-79
2022/08/04 07:52:25;;;;;;;3.40;2.22;;;;;;;31.66;35.76;99749.44;5129711;27;20031;-79
2022/08/04 07:54:52;;;;;;;2.17;1.58;;;;;;;31.37;35.18;99761.44;5109962;27;20489;-78
2022/08/04 07:57:19;;;;;;;3.35;2.35;;;;;;;31.75;37.20;99743.03;5128858;27;20035;-80
2022/08/04 07:59:45;;;;;;;3.50;2.17;;;;;;;32.13;34.05;99744.53;5129355;27;20042;-80
2022/08/04 08:02:13;;;;;;;9.55;3.10;;;;;;;31.97;35.05;99738.94;5129353;27;20533;-79
2022/08/04 08:04:39;;;;;;;3.22;2.58;;;;;;;31.80;34.66;99732.50;5129138;27;20407;-78
2022/08/04 08:07:05;;;;;;;3.75;2.08;;;;;;;32.26;35.51;99733.16;5129318;27;20114;-79
2022/08/04 08:09:33;;;;;;;4.22;2.35;;;;;;;32.33;34.24;99741.53;5129603;27;20436;-79
2022/08/04 08:11:58;;;;;;;3.13;1.80;;;;;;;32.44;33.98;99732.22;5129587;27;20035;-80
2022/08/04 08:14:24;;;;;;;2.92;2.15;;;;;;;32.82;31.89;99730.00;5129719;27;20034;-79
2022/08/04 08:16:50;;;;;;;3.17;2.00;;;;;;;33.12;31.79;99720.34;5128997;27;20039;-81
2022/08/04 08:19:15;;;;;;;2.58;2.00;;;;;;;33.72;31.77;99715.63;5129020;27;20114;-80
2022/08/04 08:21:48;;;;;;;4.40;2.20;;;;;;;34.23;31.78;99735.38;5128797;27;20038;-79
2022/08/04 08:24:15;;;;;;;7.68;3.38;;;;;;;33.24;32.31;99720.91;5128864;27;20041;-79
2022/08/04 08:26:41;;;;;;;5.57;2.45;;;;;;;33.14;31.69;99710.09;5128891;27;20171;-80
2022/08/04 08:29:07;;;;;;;1.75;1.42;;;;;;;33.15;31.58;99728.22;5128388;27;20118;-80
2022/08/04 08:31:33;;;;;;;2.25;1.50;;;;;;;34.07;32.00;99725.31;5128871;27;20062;-79
2022/08/04 08:34:00;;;;;;;2.55;1.50;;;;;;;34.54;28.01;99714.56;5129068;27;20118;-79
2022/08/04 08:36:30;;;;;;;7.22;1.40;;;;;;;34.19;29.80;99717.59;5128817;27;20042;-79
2022/08/04 08:39:10;;;;;;;1.77;1.42;;;;;;;34.26;27.32;99720.50;5128228;27;20027;-79
2022/08/04 08:41:45;;;;;;;3.40;1.15;;;;;;;34.71;26.03;99724.44;5109185;27;20763;-79
2022/08/04 08:44:31;;;;;;;1.33;0.77;;;;;;;34.75;25.74;99720.31;5128488;27;20035;-80
2022/08/04 08:47:28;;;;;;;1.50;1.27;;;;;;;34.63;27.47;99716.25;5128663;27;20031;-80
2022/08/04 08:50:05;;;;;;;2.67;2.33;;;;;;;33.70;29.31;99723.97;5128517;27;20035;-80
2022/08/04 08:53:28;;;;;;;1.73;1.27;;;;;;;34.75;27.38;99716.72;5128294;27;20042;-79
2022/08/04 08:56:27;;;;;;;4.50;1.95;;;;;;;34.97;26.56;99712.31;5024617;28;20033;-82
2022/08/04 08:59:26;;;;;;;2.58;1.38;;;;;;;35.04;25.44;99712.47;5024535;28;20077;-82
2022/08/04 09:02:26;;;;;;;2.50;1.42;;;;;;;35.15;28.71;99714.78;5119711;27;20035;-80
2022/08/04 09:05:10;;;;;;;4.72;1.15;;;;;;;34.83;27.47;99707.63;5128067;27;20840;-81
2022/08/04 09:07:44;;;;;;;2.88;1.40;;;;;;;34.65;27.13;99695.03;5127754;27;20035;-80
2022/08/04 09:10:24;;;;;;;1.63;1.33;;;;;;;34.91;27.43;99702.06;5127648;27;20567;-81
2022/08/04 09:13:01;;;;;;;1.42;1.10;;;;;;;34.94;25.75;99682.53;5127960;27;20039;-80
2022/08/04 09:15:35;;;;;;;1.50;1.15;;;;;;;34.80;26.94;99675.94;5127821;27;20138;-81
2022/08/04 09:18:12;;;;;;;2.60;1.47;;;;;;;35.50;25.94;99698.78;5128046;27;20413;-81
2022/08/04 09:21:03;;;;;;;1.48;0.95;;;;;;;35.55;26.29;99670.78;5127895;27;20560;-80
2022/08/04 09:24:02;;;;;;;2.15;1.30;;;;;;;35.71;23.93;99683.47;5128201;27;20528;-81
2022/08/04 09:26:43;;;;;;;4.30;2.10;;;;;;;36.26;24.30;99681.41;5127864;27;20031;-82
2022/08/04 09:29:37;;;;;;;1.55;1.10;;;;;;;36.18;23.17;99677.66;5127798;27;20031;-83
2022/08/04 09:32:07;;;;;;;2.17;1.33;;;;;;;35.89;23.65;99678.53;5127702;28;20496;-80
2022/08/04 09:35:13;;;;;;;1.85;1.23;;;;;;;35.39;23.33;99664.41;5127623;28;20059;-80
2022/08/04 09:37:44;;;;;;;1.55;1.02;;;;;;;34.19;26.05;99673.81;5089028;28;20142;-80
2022/08/04 09:40:16;;;;;;;1.10;1.00;;;;;;;34.61;25.88;99677.25;5127269;28;20780;-82
2022/08/04 09:43:18;;;;;;;1.73;1.30;;;;;;;34.87;27.66;99671.47;5127719;28;20031;-82
2022/08/04 09:45:52;;;;;;;1.93;1.20;;;;;;;35.05;27.55;99664.81;5127599;28;20027;-82
2022/08/04 09:48:47;;;;;;;1.48;1.20;;;;;;;35.74;24.34;99656.53;5127988;28;20028;-81
2022/08/04 09:51:24;;;;;;;2.42;1.20;;;;;;;35.86;23.60;99659.69;5105646;28;20103;-82
2022/08/04 09:53:53;;;;;;;1.35;0.95;;;;;;;36.15;24.39;99642.38;5127381;28;20114;-82
2022/08/04 09:56:33;;;;;;;2.20;1.30;;;;;;;36.06;24.42;99659.13;5127980;28;20031;-82
2022/08/04 09:59:18;;;;;;;1.70;1.17;;;;;;;35.19;23.80;99650.34;5127380;28;20114;-82
2022/08/04 10:01:46;;;;;;;2.45;1.60;;;;;;;34.63;26.69;99645.03;5109206;28;20587;-81
2022/08/04 10:04:18;;;;;;;1.75;1.20;;;;;;;35.21;24.80;99653.75;5127449;28;20031;-83
2022/08/04 10:07:08;;;;;;;1.92;1.40;;;;;;;35.76;23.38;99654.50;5108572;28;20476;-80
2022/08/04 10:09:47;;;;;;;1.20;0.73;;;;;;;35.23;24.21;99627.00;5127053;28;20035;-81
2022/08/04 10:12:30;;;;;;;1.67;1.20;;;;;;;35.59;22.38;99641.94;5127514;28;20072;-83
2022/08/04 10:14:59;;;;;;;2.85;1.50;;;;;;;36.05;22.77;99647.28;5127906;28;20828;-82
2022/08/04 10:17:41;;;;;;;1.92;1.33;;;;;;;35.68;23.13;99624.34;5127197;28;20568;-81
2022/08/04 10:20:13;;;;;;;1.70;1.23;;;;;;;35.10;22.86;99607.59;5111454;27;20047;-82
2022/08/04 10:22:47;;;;;;;2.38;1.90;;;;;;;35.72;22.61;99627.59;5131791;27;20401;-82
2022/08/04 10:25:40;;;;;;;2.25;1.48;;;;;;;35.34;22.04;99631.19;5131494;27;20042;-86
2022/08/04 10:28:12;;;;;;;2.85;2.30;;;;;;;35.27;23.86;99639.31;5130462;27;20045;-82
2022/08/04 10:30:42;;;;;;;2.50;1.70;;;;;;;35.55;22.71;99640.63;5131259;27;20027;-83
2022/08/04 10:33:15;;;;;;;2.33;1.98;;;;;;;35.84;22.16;99631.59;5130815;27;20051;-83
2022/08/04 10:35:49;;;;;;;1.20;1.08;;;;;;;36.03;21.81;99611.78;5131275;27;20083;-81
2022/08/04 10:38:21;;;;;;;2.55;1.05;;;;;;;36.05;22.52;99608.03;5130625;27;20023;-83
2022/08/04 10:41:05;;;;;;;1.92;1.17;;;;;;;35.94;23.09;99612.09;5130890;27;20038;-82
2022/08/04 10:44:02;;;;;;;1.27;0.90;;;;;;;35.31;23.09;99613.25;5131124;27;20027;-82
2022/08/04 10:46:36;;;;;;;1.73;1.33;;;;;;;35.17;26.44;99622.25;5130644;27;20030;-83
2022/08/04 10:49:07;;;;;;;1.70;1.02;;;;;;;35.30;23.43;99611.53;5130823;27;20063;-84
2022/08/04 10:51:52;;;;;;;1.45;1.00;;;;;;;35.43;23.54;99608.16;5139793;27;20034;-82
2022/08/04 10:54:43;;;;;;;2.75;1.10;;;;;;;35.52;25.83;99608.94;5121244;27;20127;-82
2022/08/04 10:57:16;;;;;;;1.45;1.13;;;;;;;35.13;23.07;99585.31;5146635;27;20596;-82
2022/08/04 10:59:48;;;;;;;1.27;1.00;;;;;;;35.30;23.44;99608.81;5151275;27;20026;-82
2022/08/04 11:02:32;;;;;;;2.30;1.38;;;;;;;35.06;23.45;99611.72;5151745;27;20038;-80
2022/08/04 11:05:26;;;;;;;1.73;1.13;;;;;;;35.17;24.46;99600.31;5151258;27;20030;-81
2022/08/04 11:07:58;;;;;;;2.22;1.30;;;;;;;35.47;21.98;99570.25;5122578;27;20513;-83
2022/08/04 11:10:31;;;;;;;2.75;1.52;;;;;;;35.36;22.54;99582.53;5138750;27;20015;-82
2022/08/04 11:13:03;;;;;;;2.13;1.55;;;;;;;34.85;25.16;99594.09;5144868;27;20114;-80
2022/08/04 11:15:46;;;;;;;2.42;1.52;;;;;;;35.11;23.52;99570.91;5150987;27;20075;-80
2022/08/04 11:18:32;;;;;;;1.92;1.05;;;;;;;35.47;22.58;99562.03;5150851;27;20115;-81
2022/08/04 11:21:09;;;;;;;2.25;1.38;;;;;;;35.47;22.41;99579.34;5150910;27;20042;-81
2022/08/04 11:23:37;;;;;;;1.83;1.35;;;;;;;34.87;22.55;99555.56;5150624;27;20521;-82
2022/08/04 11:26:08;;;;;;;2.53;1.60;;;;;;;35.29;22.43;99574.19;5151055;27;20031;-82
2022/08/04 11:28:42;;;;;;;2.50;1.60;;;;;;;35.41;22.76;99582.81;5132216;27;20084;-82
2022/08/04 11:31:17;;;;;;;2.00;1.80;;;;;;;35.09;22.90;99559.28;5149838;27;20066;-81
2022/08/04 11:33:46;;;;;;;2.42;1.58;;;;;;;35.23;24.00;99560.34;5150585;27;20078;-82
2022/08/04 11:36:20;;;;;;;2.15;1.35;;;;;;;35.54;22.36;99575.84;5150235;27;20477;-81
2022/08/04 11:39:10;;;;;;;2.65;1.95;;;;;;;35.76;22.00;99566.72;5150513;27;20031;-83
2022/08/04 11:41:56;;;;;;;5.78;2.50;;;;;;;35.13;22.31;99561.47;5132361;27;20554;-84
2022/08/04 11:44:29;;;;;;;1.55;1.00;;;;;;;35.10;22.68;99555.53;5150252;27;20095;-83
2022/08/04 11:46:59;;;;;;;1.10;0.93;;;;;;;35.23;23.33;99549.41;5150469;27;20817;-81
2022/08/04 11:49:40;;;;;;;2.10;1.58;;;;;;;35.18;23.92;99554.59;5150433;27;20083;-81
2022/08/04 11:52:08;;;;;;;1.98;1.20;;;;;;;35.02;23.82;99542.75;5150302;27;20031;-83
2022/08/04 11:54:37;;;;;;;3.53;2.28;;;;;;;34.87;24.91;99526.25;5149748;27;20026;-83
2022/08/04 11:57:03;;;;;;;1.17;0.95;;;;;;;35.21;23.48;99530.41;5150349;27;20090;-81
2022/08/04 11:59:32;;;;;;;1.77;1.30;;;;;;;35.19;23.59;99531.59;5149795;27;20442;-81
2022/08/04 12:02:09;;;;;;;2.08;1.23;;;;;;;35.32;25.64;99526.38;5149879;27;20035;-82
2022/08/04 12:04:58;;;;;;;0.98;0.88;;;;;;;35.47;22.68;99526.38;5150489;27;20023;-85
2022/08/04 12:07:57;;;;;;;1.90;1.13;;;;;;;35.45;22.96;99525.72;5131838;27;20031;-83
2022/08/04 12:10:52;;;;;;;1.73;1.10;;;;;;;35.24;22.01;99516.31;5130512;27;20125;-85
2022/08/04 12:13:35;;;;;;;2.47;1.40;;;;;;;35.71;21.46;99510.66;5127244;27;20483;-81
2022/08/04 12:16:19;;;;;;;2.72;1.90;;;;;;;35.48;21.62;99517.09;5149694;27;20031;-83
2022/08/04 12:18:51;;;;;;;1.17;0.95;;;;;;;35.35;21.09;99520.50;5149638;27;20122;-82
2022/08/04 12:21:36;;;;;;;2.40;1.42;;;;;;;35.23;22.91;99511.88;5149632;27;20866;-84